createdAt,value
2024-01-07T00:02:08.272Z,99154.19
2024-01-07T00:04:37.063Z,99138.00
2024-01-07T00:07:06.205Z,99147.78
2024-01-07T00:09:33.487Z,99152.28
2024-01-07T00:12:01.213Z,99153.66
2024-01-07T00:14:28.358Z,99153.53
2024-01-07T00:16:55.753Z,99155.34
2024-01-07T00:19:22.999Z,99138.75
2024-01-07T00:21:52.076Z,99132.28
2024-01-07T00:24:19.225Z,99123.34
2024-01-07T00:26:46.599Z,99133.69
2024-01-07T00:29:13.771Z,99130.19
2024-01-07T00:31:41.265Z,99114.25
2024-01-07T00:34:08.540Z,99131.59
2024-01-07T00:36:36.068Z,99130.25
2024-01-07T00:39:04.703Z,99125.41
2024-01-07T00:41:31.908Z,99126.75
2024-01-07T00:43:59.001Z,99128.06
2024-01-07T00:46:26.485Z,99118.44
2024-01-07T00:49:54.921Z,99098.75
2024-01-07T00:52:24.351Z,99109.91
2024-01-07T00:54:52.714Z,99106.63
2024-01-07T00:57:20.060Z,99108.44
2024-01-07T00:59:47.161Z,99108.59
2024-01-07T01:02:14.448Z,99101.16
2024-01-07T01:04:41.806Z,99098.34
2024-01-07T01:07:09.666Z,99091.38
2024-01-07T01:09:37.074Z,99096.22
2024-01-07T01:12:06.312Z,99087.59
2024-01-07T01:14:33.412Z,99091.63
2024-01-07T01:17:00.902Z,99087.66
2024-01-07T01:20:22.499Z,99070.94
2024-01-07T01:22:50.008Z,99079.22
2024-01-07T01:25:17.146Z,99065.63
2024-01-07T01:27:46.532Z,99078.13
2024-01-07T01:30:14.556Z,99076.47
2024-01-07T01:32:42.652Z,99074.03
2024-01-07T01:35:10.494Z,99071.38
2024-01-07T01:37:37.899Z,99065.22
2024-01-07T01:40:05.748Z,99055.41
2024-01-07T01:42:33.387Z,99056.69
2024-01-07T01:45:03.312Z,99061.47
2024-01-07T01:47:32.334Z,99043.31
2024-01-07T01:50:29.127Z,99053.59
2024-01-07T01:52:57.503Z,99038.97
2024-01-07T01:55:25.441Z,99029.31
2024-01-07T01:57:54.073Z,99024.19
2024-01-07T02:00:22.801Z,99033.81
2024-01-07T02:02:50.585Z,99025.16
2024-01-07T02:05:17.828Z,99020.69
2024-01-07T02:07:45.174Z,99017.47
2024-01-07T02:10:13.608Z,99014.00
2024-01-07T02:12:41.140Z,99020.97
2024-01-07T02:15:09.076Z,99007.84
2024-01-07T02:17:38.041Z,99024.47
2024-01-07T02:20:44.011Z,99016.13
2024-01-07T02:23:11.521Z,99032.63
2024-01-07T02:25:40.031Z,99022.53
2024-01-07T02:28:07.598Z,99012.81
2024-01-07T02:30:35.145Z,99016.41
2024-01-07T02:33:07.311Z,99013.75
2024-01-07T02:35:36.460Z,99013.75
2024-01-07T02:38:03.885Z,99004.38
2024-01-07T02:40:31.104Z,98996.78
2024-01-07T02:42:59.964Z,98980.53
2024-01-07T02:45:27.133Z,98992.72
2024-01-07T02:47:54.693Z,98986.59
2024-01-07T02:50:21.926Z,98981.28
2024-01-07T02:52:49.680Z,98983.09
2024-01-07T02:55:17.108Z,98972.66
2024-01-07T02:57:44.591Z,98959.38
2024-01-07T03:00:13.882Z,98963.28
2024-01-07T03:02:41.256Z,98953.28
2024-01-07T03:05:09.492Z,98952.94
2024-01-07T03:07:38.999Z,98955.41
2024-01-07T03:10:07.246Z,98948.06
2024-01-07T03:12:34.871Z,98948.69
2024-01-07T03:15:02.140Z,98949.16
2024-01-07T03:17:30.897Z,98944.94
2024-01-07T03:19:58.313Z,98942.53
2024-01-07T03:22:25.607Z,98950.78
2024-01-07T03:24:52.643Z,98956.75
2024-01-07T03:27:20.003Z,98944.00
2024-01-07T03:29:47.048Z,98947.19
2024-01-07T03:32:14.493Z,98949.28
2024-01-07T03:34:43.184Z,98933.50
2024-01-07T03:37:10.335Z,98934.69
2024-01-07T03:39:37.623Z,98934.69
2024-01-07T03:42:07.111Z,98926.94
2024-01-07T03:44:34.594Z,98920.75
2024-01-07T03:47:02.058Z,98909.66
2024-01-07T03:49:29.069Z,98912.22
2024-01-07T03:51:58.003Z,98915.31
2024-01-07T03:54:25.714Z,98892.69
2024-01-07T03:56:52.675Z,98908.00
2024-01-07T03:59:20.157Z,98891.75
2024-01-07T04:01:47.331Z,98909.81
2024-01-07T04:04:14.955Z,98900.53
2024-01-07T04:06:42.048Z,98891.50
2024-01-07T04:09:11.028Z,98899.91
2024-01-07T04:11:41.031Z,98873.09
2024-01-07T04:14:08.548Z,98900.31
2024-01-07T04:16:35.571Z,98894.59
2024-01-07T04:19:02.950Z,98899.28
2024-01-07T04:21:30.031Z,98899.66
2024-01-07T04:23:57.409Z,98902.13
2024-01-07T04:26:25.868Z,98898.66
2024-01-07T04:28:53.215Z,98896.06
2024-01-07T04:31:20.502Z,98905.06
2024-01-07T04:33:48.474Z,98899.75
2024-01-07T04:36:15.609Z,98866.13
2024-01-07T04:38:43.008Z,98905.25
2024-01-07T04:41:10.138Z,98894.16
2024-01-07T04:43:39.013Z,98898.84
2024-01-07T04:46:06.405Z,98902.31
2024-01-07T04:48:34.010Z,98895.22
2024-01-07T04:51:01.187Z,98887.25
2024-01-07T04:53:28.951Z,98891.31
2024-01-07T04:55:56.094Z,98894.53
2024-01-07T04:58:23.595Z,98891.22
2024-01-07T05:00:52.103Z,98887.31
2024-01-07T05:03:19.556Z,98884.94
2024-01-07T05:05:46.849Z,98904.75
2024-01-07T05:08:14.262Z,98897.78
2024-01-07T05:10:41.292Z,98898.59
2024-01-07T05:13:08.936Z,98891.81
2024-01-07T05:15:36.748Z,98893.56
2024-01-07T05:18:08.608Z,98880.81
2024-01-07T05:20:35.823Z,98893.81
2024-01-07T05:23:03.103Z,98896.47
2024-01-07T05:25:30.247Z,98900.78
2024-01-07T05:27:57.831Z,98902.59
2024-01-07T05:30:25.730Z,98895.84
2024-01-07T05:32:53.862Z,98854.81
2024-01-07T05:35:22.345Z,98902.09
2024-01-07T05:37:49.625Z,98895.31
2024-01-07T05:40:16.913Z,98903.91
2024-01-07T05:42:44.420Z,98900.00
2024-01-07T05:45:11.593Z,98903.28
2024-01-07T05:47:39.115Z,98908.06
2024-01-07T05:50:06.539Z,98898.41
2024-01-07T05:52:35.970Z,98899.44
2024-01-07T05:55:02.851Z,98897.34
2024-01-07T05:57:30.253Z,98901.56
2024-01-07T05:59:57.477Z,98895.59
2024-01-07T06:02:25.856Z,98894.13
2024-01-07T06:04:53.586Z,98895.59
2024-01-07T06:07:21.083Z,98885.81
2024-01-07T06:09:49.719Z,98892.94
2024-01-07T06:12:16.945Z,98888.25
2024-01-07T06:14:43.977Z,98893.41
2024-01-07T06:17:11.310Z,98883.78
2024-01-07T06:19:38.559Z,98893.13
2024-01-07T06:22:06.412Z,98885.19
2024-01-07T06:24:33.515Z,98883.25
2024-01-07T06:27:05.028Z,98888.31
2024-01-07T06:29:32.058Z,98880.88
2024-01-07T06:31:59.570Z,98890.31
2024-01-07T06:34:26.776Z,98883.16
2024-01-07T06:36:54.381Z,98882.44
2024-01-07T06:39:21.500Z,98881.88
2024-01-07T06:41:48.854Z,98880.50
2024-01-07T06:44:17.539Z,98888.09
2024-01-07T06:46:44.902Z,98881.75
2024-01-07T06:49:12.225Z,98885.63
2024-01-07T06:51:40.042Z,98888.47
2024-01-07T06:54:07.257Z,98891.94
2024-01-07T06:56:34.555Z,98889.94
2024-01-07T06:59:01.852Z,98887.28
2024-01-07T07:01:30.833Z,98893.84
2024-01-07T07:03:58.109Z,98900.84
2024-01-07T07:06:25.574Z,98891.47
2024-01-07T07:08:52.711Z,98895.59
2024-01-07T07:11:20.630Z,98890.28
2024-01-07T07:13:50.174Z,98897.44
2024-01-07T07:16:17.576Z,98895.88
2024-01-07T07:18:46.258Z,98886.63
2024-01-07T07:21:13.681Z,98893.78
2024-01-07T07:23:43.048Z,98892.31
2024-01-07T07:26:16.437Z,98898.19
2024-01-07T07:28:56.432Z,98894.81
2024-01-07T07:31:25.871Z,98889.50
2024-01-07T07:33:54.794Z,98894.53
2024-01-07T07:36:26.674Z,98892.03
2024-01-07T07:39:00.202Z,98894.81
2024-01-07T07:41:29.611Z,98890.41
2024-01-07T07:43:58.421Z,98885.81
2024-01-07T07:46:31.769Z,98892.66
2024-01-07T07:49:02.273Z,98885.28
2024-01-07T07:51:29.843Z,98888.28
2024-01-07T07:53:58.510Z,98888.47
2024-01-07T07:56:25.613Z,98893.66
2024-01-07T07:58:55.082Z,98885.25
2024-01-07T08:01:28.965Z,98888.91
2024-01-07T08:03:56.869Z,98887.59
2024-01-07T08:06:25.872Z,98899.16
2024-01-07T08:08:56.084Z,98893.47
2024-01-07T08:11:23.538Z,98891.59
2024-01-07T08:13:50.612Z,98898.13
2024-01-07T08:16:17.939Z,98895.31
2024-01-07T08:18:46.778Z,98897.56
2024-01-07T08:21:14.158Z,98898.50
2024-01-07T08:23:43.398Z,98875.97
2024-01-07T08:26:10.636Z,98896.53
2024-01-07T08:28:37.705Z,98899.59
2024-01-07T08:31:05.391Z,98902.28
2024-01-07T08:33:34.576Z,98889.97
2024-01-07T08:36:02.156Z,98893.78
2024-01-07T08:38:31.672Z,98896.50
2024-01-07T08:41:02.293Z,98884.47
2024-01-07T08:43:29.538Z,98893.25
2024-01-07T08:45:58.294Z,98889.84
2024-01-07T08:48:25.539Z,98843.34
2024-01-07T08:50:53.187Z,98894.91
2024-01-07T08:53:21.650Z,98890.44
2024-01-07T08:55:49.218Z,98895.22
2024-01-07T08:58:18.367Z,98893.44
2024-01-07T09:00:45.770Z,98893.25
2024-01-07T09:03:13.101Z,98887.72
2024-01-07T09:05:42.764Z,98894.34
2024-01-07T09:08:12.301Z,98896.84
2024-01-07T09:10:39.665Z,98890.44
2024-01-07T09:13:07.133Z,98889.34
2024-01-07T09:15:46.676Z,98871.66
2024-01-07T09:18:13.962Z,98889.88
2024-01-07T09:20:44.177Z,98876.09
2024-01-07T09:23:11.273Z,98887.56
2024-01-07T09:25:43.441Z,98878.72
2024-01-07T09:28:16.603Z,98890.66
2024-01-07T09:30:47.207Z,98893.75
2024-01-07T09:33:16.617Z,98882.72
2024-01-07T09:35:44.872Z,98899.34
2024-01-07T09:38:13.187Z,98885.84
2024-01-07T09:40:41.347Z,98879.34
2024-01-07T09:43:09.531Z,98881.69
2024-01-07T09:45:40.138Z,98894.69
2024-01-07T09:48:08.980Z,98889.53
2024-01-07T09:50:36.503Z,98883.59
2024-01-07T09:53:04.974Z,98891.00
2024-01-07T09:55:37.273Z,98898.63
2024-01-07T09:58:04.917Z,98901.28
2024-01-07T10:00:33.344Z,98899.00
2024-01-07T10:03:00.742Z,98912.13
2024-01-07T10:05:29.836Z,98903.47
2024-01-07T10:07:58.338Z,98914.91
2024-01-07T10:10:25.900Z,98909.94
2024-01-07T10:12:54.353Z,98908.91
2024-01-07T10:15:22.260Z,98897.00
2024-01-07T10:17:49.639Z,98907.22
2024-01-07T10:20:18.195Z,98890.44
2024-01-07T10:22:51.158Z,98886.56
2024-01-07T10:25:20.031Z,98884.13
2024-01-07T10:27:47.286Z,98893.63
2024-01-07T10:30:17.282Z,98880.66
2024-01-07T10:32:44.893Z,98889.03
2024-01-07T10:35:17.294Z,98885.94
2024-01-07T10:37:46.256Z,98876.88
2024-01-07T10:40:15.556Z,98876.00
2024-01-07T10:42:44.846Z,98870.84
2024-01-07T10:45:12.315Z,98868.78
2024-01-07T10:47:42.690Z,98873.28
2024-01-07T10:50:13.311Z,98872.84
2024-01-07T10:52:41.882Z,98870.59
2024-01-07T10:55:10.475Z,98871.78
2024-01-07T10:57:43.915Z,98863.13
2024-01-07T11:00:19.543Z,98870.50
2024-01-07T11:03:05.957Z,98878.31
2024-01-07T11:05:41.993Z,98870.94
2024-01-07T11:08:16.856Z,98855.53
2024-01-07T11:10:53.070Z,98863.56
2024-01-07T11:13:36.097Z,98862.13
2024-01-07T11:16:04.180Z,98860.47
2024-01-07T11:18:35.291Z,98862.31
2024-01-07T11:21:03.337Z,98853.91
2024-01-07T11:23:32.085Z,98860.88
2024-01-07T11:25:59.434Z,98861.31
2024-01-07T11:28:47.053Z,98837.00
2024-01-07T11:31:16.769Z,98857.97
2024-01-07T11:33:45.439Z,98866.16
2024-01-07T11:36:14.185Z,98862.88
2024-01-07T11:38:45.129Z,98857.28
2024-01-07T11:41:14.470Z,98860.53
2024-01-07T11:43:56.029Z,98851.69
2024-01-07T11:46:24.060Z,98863.97
2024-01-07T11:48:54.111Z,98856.56
2024-01-07T11:51:21.536Z,98864.34
2024-01-07T11:53:49.442Z,98858.50
2024-01-07T11:56:17.143Z,98812.25
2024-01-07T11:58:44.257Z,98861.41
2024-01-07T12:01:15.673Z,98860.56
2024-01-07T12:03:44.835Z,98849.72
2024-01-07T12:06:15.627Z,98852.72
2024-01-07T12:08:43.661Z,98853.47
2024-01-07T12:11:13.463Z,98859.16
2024-01-07T12:13:41.391Z,98869.91
2024-01-07T12:16:09.841Z,98856.56
2024-01-07T12:18:39.592Z,98861.91
2024-01-07T12:21:07.307Z,98864.59
2024-01-07T12:23:37.635Z,98865.56
2024-01-07T12:26:12.180Z,98867.03
2024-01-07T12:28:40.314Z,98860.56
2024-01-07T12:31:09.571Z,98859.34
2024-01-07T12:33:41.242Z,98862.09
2024-01-07T12:36:08.965Z,98864.22
2024-01-07T12:38:39.056Z,98848.50
2024-01-07T12:41:06.261Z,98865.72
2024-01-07T12:43:34.104Z,98840.63
2024-01-07T12:46:06.149Z,98857.53
2024-01-07T12:48:34.774Z,98811.84
2024-01-07T12:51:06.583Z,98872.97
2024-01-07T12:53:34.524Z,98880.03
2024-01-07T12:56:01.640Z,98832.56
2024-01-07T12:58:29.312Z,98842.97
2024-01-07T13:00:58.084Z,98835.06
2024-01-07T13:03:30.062Z,98879.06
2024-01-07T13:05:57.318Z,98869.00
2024-01-07T13:08:28.206Z,98881.66
2024-01-07T13:10:57.554Z,98883.31
2024-01-07T13:13:25.207Z,98880.56
2024-01-07T13:15:52.552Z,98892.59
2024-01-07T13:18:21.522Z,98880.06
2024-01-07T13:20:48.773Z,98878.19
2024-01-07T13:23:16.219Z,98891.91
2024-01-07T13:25:45.226Z,98888.59
2024-01-07T13:28:12.837Z,98892.34
2024-01-07T13:30:41.786Z,98899.75
2024-01-07T13:33:09.804Z,98897.81
2024-01-07T13:35:37.112Z,98893.34
2024-01-07T13:38:06.443Z,98905.94
2024-01-07T13:40:33.515Z,98909.69
2024-01-07T13:43:04.308Z,98913.31
2024-01-07T13:45:31.577Z,98910.19
2024-01-07T13:47:59.223Z,98917.25
2024-01-07T13:50:29.330Z,98915.34
2024-01-07T13:52:56.802Z,98932.84
2024-01-07T13:55:24.782Z,98932.09
2024-01-07T13:57:52.454Z,98917.06
2024-01-07T14:00:22.289Z,98938.91
2024-01-07T14:02:50.450Z,98944.13
2024-01-07T14:05:20.513Z,98946.13
2024-01-07T14:07:48.537Z,98938.38
2024-01-07T14:10:16.594Z,98930.19
2024-01-07T14:12:45.054Z,98941.09
2024-01-07T14:15:12.175Z,98947.72
2024-01-07T14:17:40.929Z,98948.44
2024-01-07T14:20:09.291Z,98944.34
2024-01-07T14:22:37.126Z,98945.97
2024-01-07T14:25:05.294Z,98961.69
2024-01-07T14:27:35.599Z,98943.34
2024-01-07T14:30:04.016Z,98966.69
2024-01-07T14:32:31.632Z,98969.03
2024-01-07T14:35:00.577Z,98970.94
2024-01-07T14:37:29.047Z,98977.75
2024-01-07T14:39:56.532Z,98976.13
2024-01-07T14:42:23.928Z,98955.97
2024-01-07T14:44:51.944Z,98987.63
2024-01-07T14:47:19.558Z,98982.75
2024-01-07T14:49:46.678Z,98989.31
2024-01-07T14:52:15.703Z,98997.44
2024-01-07T14:54:42.935Z,98978.91
2024-01-07T14:57:13.422Z,99003.25
2024-01-07T14:59:40.667Z,99012.00
2024-01-07T15:02:10.713Z,99009.69
2024-01-07T15:04:39.949Z,99010.03
2024-01-07T15:07:07.380Z,99018.00
2024-01-07T15:09:39.433Z,99015.91
2024-01-07T15:12:07.202Z,98992.56
2024-01-07T15:14:35.499Z,99008.44
2024-01-07T15:17:02.742Z,99005.78
2024-01-07T15:19:32.273Z,99009.78
2024-01-07T15:21:59.898Z,99016.91
2024-01-07T15:24:28.668Z,99007.44
2024-01-07T15:26:58.231Z,99013.44
2024-01-07T15:29:25.272Z,99019.72
2024-01-07T15:31:52.770Z,99022.38
2024-01-07T15:34:20.120Z,99036.13
2024-01-07T15:36:47.543Z,99036.13
2024-01-07T15:39:14.681Z,99034.63
2024-01-07T15:41:42.178Z,99030.34
2024-01-07T15:44:10.760Z,99026.34
2024-01-07T15:46:38.557Z,99034.47
2024-01-07T15:49:05.775Z,99020.03
2024-01-07T15:51:33.750Z,99033.13
2024-01-07T15:54:00.951Z,99029.00
2024-01-07T15:56:31.296Z,99032.97
2024-01-07T15:59:00.224Z,99049.66
2024-01-07T16:01:29.172Z,99021.69
2024-01-07T16:03:58.389Z,99046.19
2024-01-07T16:06:26.153Z,99048.69
2024-01-07T16:08:53.207Z,99052.63
2024-01-07T16:11:20.560Z,99061.22
2024-01-07T16:13:48.662Z,99062.72
2024-01-07T16:16:16.947Z,99065.13
2024-01-07T16:18:45.475Z,99061.47
2024-01-07T16:21:50.040Z,99063.63
2024-01-07T16:24:17.558Z,99067.28
2024-01-07T16:26:44.924Z,99068.91
2024-01-07T16:29:12.017Z,99068.06
2024-01-07T16:31:39.975Z,99073.84
2024-01-07T16:34:08.605Z,99083.22
2024-01-07T16:36:36.117Z,99084.81
2024-01-07T16:39:05.012Z,99086.31
2024-01-07T16:41:33.698Z,99090.09
2024-01-07T16:44:00.884Z,99077.00
2024-01-07T16:46:28.470Z,99099.53
2024-01-07T16:50:16.764Z,99095.09
2024-01-07T16:51:44.557Z,99088.06
2024-01-07T16:54:12.100Z,99088.00
2024-01-07T16:56:39.570Z,99083.47
2024-01-07T16:59:07.241Z,99084.69
2024-01-07T17:01:34.670Z,99096.81
2024-01-07T17:04:01.996Z,99102.81
2024-01-07T17:06:30.018Z,99105.97
2024-01-07T17:08:59.944Z,99106.63
2024-01-07T17:11:27.423Z,99100.56
2024-01-07T17:13:54.710Z,99068.06
2024-01-07T17:16:22.729Z,99116.47
2024-01-07T17:18:49.793Z,99114.59
2024-01-07T17:21:19.801Z,99130.81
2024-01-07T17:23:52.186Z,99128.66
2024-01-07T17:26:22.179Z,99118.38
2024-01-07T17:28:50.082Z,99136.25
2024-01-07T17:31:17.676Z,99139.63
2024-01-07T17:33:44.965Z,99138.25
2024-01-07T17:36:15.726Z,99158.72
2024-01-07T17:38:42.819Z,99154.53
2024-01-07T17:41:11.866Z,99149.06
2024-01-07T17:43:40.634Z,99158.81
2024-01-07T17:46:08.050Z,99168.66
2024-01-07T17:48:35.277Z,99164.97
2024-01-07T17:51:05.817Z,99171.56
2024-01-07T17:53:37.128Z,99179.16
2024-01-07T17:56:05.118Z,99178.63
2024-01-07T17:58:32.290Z,99154.34
2024-01-07T18:01:01.187Z,99182.25
2024-01-07T18:03:28.378Z,99182.75
2024-01-07T18:05:55.915Z,99197.94
2024-01-07T18:08:32.660Z,99197.59
2024-01-07T18:11:06.763Z,99196.09
2024-01-07T18:13:37.230Z,99189.63
2024-01-07T18:16:08.283Z,99189.50
2024-01-07T18:18:35.531Z,99202.91
2024-01-07T18:21:08.127Z,99198.41
2024-01-07T18:23:35.268Z,99211.94
2024-01-07T18:26:02.773Z,99208.53
2024-01-07T18:28:29.890Z,99214.16
2024-01-07T18:30:57.448Z,99207.59
2024-01-07T18:33:26.091Z,99209.53
2024-01-07T18:35:53.644Z,99210.13
2024-01-07T18:38:20.929Z,99222.97
2024-01-07T18:40:51.301Z,99213.72
2024-01-07T18:43:21.664Z,99215.25
2024-01-07T18:45:49.000Z,99227.84
2024-01-07T18:48:16.527Z,99219.34
2024-01-07T18:50:51.047Z,99237.69
2024-01-07T18:53:25.330Z,99235.50
2024-01-07T18:55:53.885Z,99228.06
2024-01-07T18:58:24.773Z,99228.34
2024-01-07T19:00:53.165Z,99241.63
2024-01-07T19:03:20.318Z,99229.69
2024-01-07T19:05:54.814Z,99241.06
2024-01-07T19:08:21.945Z,99247.19
2024-01-07T19:10:49.514Z,99250.22
2024-01-07T19:13:18.003Z,99252.59
2024-01-07T19:15:48.385Z,99258.31
2024-01-07T19:18:18.138Z,99255.75
2024-01-07T19:20:47.673Z,99258.81
2024-01-07T19:23:16.375Z,99245.47
2024-01-07T19:25:47.345Z,99256.84
2024-01-07T19:28:15.905Z,99257.69
2024-01-07T19:30:45.921Z,99272.00
2024-01-07T19:33:14.801Z,99268.28
2024-01-07T19:35:42.799Z,99262.63
2024-01-07T19:38:09.905Z,99276.78
2024-01-07T19:40:40.035Z,99270.09
2024-01-07T19:43:07.344Z,99272.59
2024-01-07T19:45:34.715Z,99287.06
2024-01-07T19:48:04.904Z,99275.66
2024-01-07T19:50:32.618Z,99275.38
2024-01-07T19:53:00.053Z,99250.97
2024-01-07T19:55:27.526Z,99289.50
2024-01-07T19:57:58.772Z,99290.78
2024-01-07T20:00:26.001Z,99297.84
2024-01-07T20:02:57.052Z,99295.50
2024-01-07T20:05:29.156Z,99293.13
2024-01-07T20:07:58.881Z,99301.72
2024-01-07T20:10:26.618Z,99308.34
2024-01-07T20:12:58.715Z,99308.88
2024-01-07T20:15:27.570Z,99288.88
2024-01-07T20:17:56.939Z,99303.03
2024-01-07T20:20:24.422Z,99333.44
2024-01-07T20:22:51.588Z,99312.63
2024-01-07T20:25:19.137Z,99327.88
2024-01-07T20:27:48.534Z,99331.34
2024-01-07T20:30:16.309Z,99337.16
2024-01-07T20:32:45.351Z,99341.72
2024-01-07T20:35:13.239Z,99352.81
2024-01-07T20:37:47.215Z,99354.59
2024-01-07T20:40:14.782Z,99346.97
2024-01-07T20:42:44.341Z,99320.06
2024-01-07T20:45:12.577Z,99349.84
2024-01-07T20:47:39.757Z,99368.25
2024-01-07T20:50:17.631Z,99338.50
2024-01-07T20:52:47.119Z,99331.25
2024-01-07T20:55:14.610Z,99328.97
2024-01-07T20:57:42.093Z,99341.50
2024-01-07T21:00:14.088Z,99353.69
2024-01-07T21:02:41.415Z,99361.72
2024-01-07T21:05:10.758Z,99373.06
2024-01-07T21:07:42.344Z,99380.28
2024-01-07T21:10:15.826Z,99383.72
2024-01-07T21:12:43.370Z,99384.81
2024-01-07T21:15:11.310Z,99378.84
2024-01-07T21:17:39.700Z,99397.50
2024-01-07T21:20:09.781Z,99397.66
2024-01-07T21:22:37.849Z,99399.91
2024-01-07T21:25:11.380Z,99399.91
2024-01-07T21:27:40.261Z,99381.25
2024-01-07T21:30:11.529Z,99404.47
2024-01-07T21:32:45.899Z,99379.94
2024-01-07T21:35:14.338Z,99392.38
2024-01-07T21:37:43.650Z,99406.38
2024-01-07T21:40:15.537Z,99416.06
2024-01-07T21:42:42.833Z,99424.53
2024-01-07T21:45:11.045Z,99416.38
2024-01-07T21:47:41.064Z,99419.94
2024-01-07T21:50:09.290Z,99407.47
2024-01-07T21:52:36.611Z,99431.50
2024-01-07T21:55:04.867Z,99408.28
2024-01-07T21:57:33.495Z,99419.75
2024-01-07T22:00:00.917Z,99434.91
2024-01-07T22:02:28.353Z,99427.78
2024-01-07T22:04:55.857Z,99446.50
2024-01-07T22:07:24.734Z,99436.03
2024-01-07T22:09:54.461Z,99443.44
2024-01-07T22:12:21.663Z,99450.50
2024-01-07T22:14:50.729Z,99456.69
2024-01-07T22:17:23.090Z,99459.38
2024-01-07T22:19:50.971Z,99408.13
2024-01-07T22:22:18.673Z,99459.00
2024-01-07T22:24:48.949Z,99478.34
2024-01-07T22:27:16.037Z,99468.31
2024-01-07T22:29:43.718Z,99471.53
2024-01-07T22:32:12.211Z,99485.50
2024-01-07T22:34:41.541Z,99491.28
2024-01-07T22:37:08.760Z,99491.91
2024-01-07T22:39:36.131Z,99490.53
2024-01-07T22:42:03.765Z,99499.50
2024-01-07T22:44:31.152Z,99476.78
2024-01-07T22:46:58.446Z,99492.88
2024-01-07T22:49:28.926Z,99497.22
2024-01-07T22:51:57.837Z,99496.50
2024-01-07T22:54:25.893Z,99507.25
2024-01-07T22:56:53.005Z,99507.09
2024-01-07T22:59:23.550Z,99501.53
2024-01-07T23:01:53.801Z,99511.44
2024-01-07T23:04:21.396Z,99518.69
2024-01-07T23:06:50.012Z,99513.44
2024-01-07T23:09:17.162Z,99514.66
2024-01-07T23:11:44.651Z,99523.75
2024-01-07T23:14:11.842Z,99513.50
2024-01-07T23:16:40.431Z,99525.31
2024-01-07T23:19:07.609Z,99530.00
2024-01-07T23:21:35.012Z,99528.09
2024-01-07T23:24:03.910Z,99514.97
2024-01-07T23:26:31.193Z,99543.22
2024-01-07T23:28:58.635Z,99536.78
2024-01-07T23:31:26.460Z,99535.94
2024-01-07T23:33:53.743Z,99538.13
2024-01-07T23:36:23.058Z,99534.19
2024-01-07T23:38:50.336Z,99545.16
2024-01-07T23:41:19.200Z,99553.78
2024-01-07T23:43:46.354Z,99551.28
2024-01-07T23:46:13.735Z,99557.13
2024-01-07T23:48:40.867Z,99543.50
2024-01-07T23:51:08.273Z,99567.75
2024-01-07T23:53:35.400Z,99566.22
2024-01-07T23:56:02.878Z,99574.44
2024-01-07T23:58:31.659Z,99583.41
